sensor_id;sensor_type;location;lat;lon;timestamp;pressure;altitude;pressure_sealevel;temperature;humidity
35224;BME280;21367;51.930;8.112;2023-05-16T00:02:35;100915.72;;;11.73;88.07
35224;BME280;21367;51.930;8.112;2023-05-16T00:07:41;100917.41;;;11.73;87.18
35224;BME280;21367;51.930;8.112;2023-05-16T00:12:48;100909.19;;;11.81;87.40
35224;BME280;21367;51.930;8.112;2023-05-16T00:17:53;100916.84;;;12.01;86.51
35224;BME280;21367;51.930;8.112;2023-05-16T00:22:58;100917.94;;;11.85;87.05
35224;BME280;21367;51.930;8.112;2023-05-16T00:28:05;100913.75;;;12.10;85.63
35224;BME280;21367;51.930;8.112;2023-05-16T00:33:09;100920.34;;;11.82;86.60
35224;BME280;21367;51.930;8.112;2023-05-16T00:38:13;100922.69;;;11.97;86.56
35224;BME280;21367;51.930;8.112;2023-05-16T00:43:21;100917.19;;;11.68;87.39
35224;BME280;21367;51.930;8.112;2023-05-16T00:48:25;100924.13;;;11.90;86.18
35224;BME280;21367;51.930;8.112;2023-05-16T00:53:34;100923.28;;;12.12;85.72
35224;BME280;21367;51.930;8.112;2023-05-16T00:58:42;100921.03;;;12.20;85.28
35224;BME280;21367;51.930;8.112;2023-05-16T01:03:48;100922.75;;;12.66;84.07
35224;BME280;21367;51.930;8.112;2023-05-16T01:08:52;100912.44;;;12.66;83.91
35224;BME280;21367;51.930;8.112;2023-05-16T01:14:08;100925.19;;;12.39;86.16
35224;BME280;21367;51.930;8.112;2023-05-16T01:19:36;100920.34;;;11.61;91.41
35224;BME280;21367;51.930;8.112;2023-05-16T01:24:58;100925.97;;;11.93;92.22
35224;BME280;21367;51.930;8.112;2023-05-16T01:30:18;100932.31;;;12.01;92.86
35224;BME280;21367;51.930;8.112;2023-05-16T01:35:23;100934.94;;;11.81;94.57
35224;BME280;21367;51.930;8.112;2023-05-16T01:40:34;100937.44;;;11.80;95.81
35224;BME280;21367;51.930;8.112;2023-05-16T01:45:48;100943.16;;;11.73;95.84
35224;BME280;21367;51.930;8.112;2023-05-16T01:50:55;100951.03;;;10.77;100.00
35224;BME280;21367;51.930;8.112;2023-05-16T01:56:01;100964.13;;;10.27;100.00
35224;BME280;21367;51.930;8.112;2023-05-16T02:01:12;100978.47;;;10.23;100.00
35224;BME280;21367;51.930;8.112;2023-05-16T02:06:16;100987.97;;;10.06;100.00
35224;BME280;21367;51.930;8.112;2023-05-16T02:11:20;100986.28;;;10.07;100.00
35224;BME280;21367;51.930;8.112;2023-05-16T02:16:28;100990.06;;;10.31;100.00
35224;BME280;21367;51.930;8.112;2023-05-16T02:21:32;100988.25;;;10.48;100.00
35224;BME280;21367;51.930;8.112;2023-05-16T02:26:37;100993.25;;;10.45;100.00
35224;BME280;21367;51.930;8.112;2023-05-16T02:31:43;100993.44;;;10.68;99.46
35224;BME280;21367;51.930;8.112;2023-05-16T02:36:47;101001.13;;;11.05;97.41
35224;BME280;21367;51.930;8.112;2023-05-16T02:41:50;101006.53;;;10.18;98.18
35224;BME280;21367;51.930;8.112;2023-05-16T02:46:57;101009.69;;;10.67;95.76
35224;BME280;21367;51.930;8.112;2023-05-16T02:52:00;101031.66;;;10.60;93.34
35224;BME280;21367;51.930;8.112;2023-05-16T02:57:04;101029.28;;;10.64;90.96
35224;BME280;21367;51.930;8.112;2023-05-16T03:02:11;101033.25;;;10.58;91.31
35224;BME280;21367;51.930;8.112;2023-05-16T03:07:14;101030.59;;;10.74;93.39
35224;BME280;21367;51.930;8.112;2023-05-16T03:12:18;101044.03;;;10.86;92.38
35224;BME280;21367;51.930;8.112;2023-05-16T03:17:26;101041.41;;;10.49;93.16
35224;BME280;21367;51.930;8.112;2023-05-16T03:22:31;101042.94;;;10.28;95.26
35224;BME280;21367;51.930;8.112;2023-05-16T03:27:35;101054.28;;;10.31;92.30
35224;BME280;21367;51.930;8.112;2023-05-16T03:32:44;101057.41;;;10.61;91.63
35224;BME280;21367;51.930;8.112;2023-05-16T03:37:48;101062.44;;;10.96;90.60
35224;BME280;21367;51.930;8.112;2023-05-16T03:42:52;101063.50;;;10.81;90.70
35224;BME280;21367;51.930;8.112;2023-05-16T03:48:01;101068.44;;;10.77;91.83
35224;BME280;21367;51.930;8.112;2023-05-16T03:53:05;101078.25;;;10.85;92.86
35224;BME280;21367;51.930;8.112;2023-05-16T03:58:09;101080.72;;;11.02;92.78
35224;BME280;21367;51.930;8.112;2023-05-16T04:03:16;101090.69;;;10.94;94.70
35224;BME280;21367;51.930;8.112;2023-05-16T04:08:20;101086.78;;;11.22;90.77
35224;BME280;21367;51.930;8.112;2023-05-16T04:13:24;101093.75;;;10.87;90.34
35224;BME280;21367;51.930;8.112;2023-05-16T04:18:30;101099.81;;;10.87;88.99
35224;BME280;21367;51.930;8.112;2023-05-16T04:23:34;101111.41;;;10.44;89.41
35224;BME280;21367;51.930;8.112;2023-05-16T04:28:38;101121.25;;;10.02;89.51
35224;BME280;21367;51.930;8.112;2023-05-16T04:33:45;101128.94;;;10.52;88.88
35224;BME280;21367;51.930;8.112;2023-05-16T04:38:49;101133.00;;;10.47;89.28
35224;BME280;21367;51.930;8.112;2023-05-16T04:43:53;101146.16;;;10.20;90.21
35224;BME280;21367;51.930;8.112;2023-05-16T04:49:01;101157.75;;;9.96;89.84
35224;BME280;21367;51.930;8.112;2023-05-16T04:54:05;101158.00;;;10.01;89.71
35224;BME280;21367;51.930;8.112;2023-05-16T04:59:08;101171.78;;;10.19;88.45
35224;BME280;21367;51.930;8.112;2023-05-16T05:04:15;101179.03;;;10.10;87.73
35224;BME280;21367;51.930;8.112;2023-05-16T05:09:19;101184.63;;;10.03;87.65
35224;BME280;21367;51.930;8.112;2023-05-16T05:14:23;101189.16;;;10.07;88.15
35224;BME280;21367;51.930;8.112;2023-05-16T05:19:29;101192.19;;;10.32;87.82
35224;BME280;21367;51.930;8.112;2023-05-16T05:24:33;101196.03;;;10.40;86.74
35224;BME280;21367;51.930;8.112;2023-05-16T05:29:37;101210.00;;;10.13;87.03
35224;BME280;21367;51.930;8.112;2023-05-16T05:34:44;101217.72;;;9.96;88.16
35224;BME280;21367;51.930;8.112;2023-05-16T05:39:49;101222.72;;;10.26;88.11
35224;BME280;21367;51.930;8.112;2023-05-16T05:44:53;101227.59;;;10.38;85.22
35224;BME280;21367;51.930;8.112;2023-05-16T05:49:59;101228.94;;;10.15;86.00
35224;BME280;21367;51.930;8.112;2023-05-16T05:55:04;101227.38;;;10.68;85.31
35224;BME280;21367;51.930;8.112;2023-05-16T06:00:09;101232.13;;;10.60;83.60
35224;BME280;21367;51.930;8.112;2023-05-16T06:05:16;101228.28;;;10.52;84.39
35224;BME280;21367;51.930;8.112;2023-05-16T06:10:20;101225.41;;;10.80;81.41
35224;BME280;21367;51.930;8.112;2023-05-16T06:15:24;101231.97;;;10.24;84.13
35224;BME280;21367;51.930;8.112;2023-05-16T06:20:31;101244.03;;;10.58;81.47
35224;BME280;21367;51.930;8.112;2023-05-16T06:25:35;101251.50;;;10.87;79.34
35224;BME280;21367;51.930;8.112;2023-05-16T06:30:39;101258.94;;;10.99;78.80
35224;BME280;21367;51.930;8.112;2023-05-16T06:35:46;101255.63;;;10.68;79.21
35224;BME280;21367;51.930;8.112;2023-05-16T06:40:50;101258.75;;;11.13;77.92
35224;BME280;21367;51.930;8.112;2023-05-16T06:45:54;101261.72;;;10.86;79.64
35224;BME280;21367;51.930;8.112;2023-05-16T06:51:02;101254.97;;;11.42;77.37
35224;BME280;21367;51.930;8.112;2023-05-16T06:56:05;101259.31;;;11.61;75.90
35224;BME280;21367;51.930;8.112;2023-05-16T07:01:09;101272.31;;;11.28;75.01
35224;BME280;21367;51.930;8.112;2023-05-16T07:06:16;101273.44;;;11.33;73.13
35224;BME280;21367;51.930;8.112;2023-05-16T07:11:21;101275.84;;;11.30;73.04
35224;BME280;21367;51.930;8.112;2023-05-16T07:16:25;101275.13;;;11.50;71.82
35224;BME280;21367;51.930;8.112;2023-05-16T07:21:33;101274.41;;;11.90;69.19
35224;BME280;21367;51.930;8.112;2023-05-16T07:26:37;101279.94;;;11.62;70.64
35224;BME280;21367;51.930;8.112;2023-05-16T07:31:41;101285.50;;;12.07;68.56
35224;BME280;21367;51.930;8.112;2023-05-16T07:36:48;101283.50;;;11.64;69.84
35224;BME280;21367;51.930;8.112;2023-05-16T07:41:52;101285.81;;;11.95;66.95
35224;BME280;21367;51.930;8.112;2023-05-16T07:46:56;101289.09;;;12.30;66.81
35224;BME280;21367;51.930;8.112;2023-05-16T07:52:03;101276.31;;;12.93;65.26
35224;BME280;21367;51.930;8.112;2023-05-16T07:57:07;101282.66;;;13.41;63.36
35224;BME280;21367;51.930;8.112;2023-05-16T08:02:11;101292.56;;;12.90;64.10
35224;BME280;21367;51.930;8.112;2023-05-16T08:07:18;101288.53;;;12.97;63.94
35224;BME280;21367;51.930;8.112;2023-05-16T08:12:22;101288.16;;;13.09;63.50
35224;BME280;21367;51.930;8.112;2023-05-16T08:17:27;101281.00;;;13.23;62.14
35224;BME280;21367;51.930;8.112;2023-05-16T08:22:33;101287.44;;;13.32;61.67
35224;BME280;21367;51.930;8.112;2023-05-16T08:27:37;101295.13;;;13.53;62.08
35224;BME280;21367;51.930;8.112;2023-05-16T08:32:41;101299.00;;;13.21;61.32
35224;BME280;21367;51.930;8.112;2023-05-16T08:37:47;101302.47;;;13.01;61.50
35224;BME280;21367;51.930;8.112;2023-05-16T08:42:51;101287.03;;;13.44;60.98
35224;BME280;21367;51.930;8.112;2023-05-16T08:47:56;101284.88;;;14.00;60.61
35224;BME280;21367;51.930;8.112;2023-05-16T08:53:07;101286.72;;;13.57;58.89
35224;BME280;21367;51.930;8.112;2023-05-16T08:58:12;101292.63;;;15.23;56.02
35224;BME280;21367;51.930;8.112;2023-05-16T09:03:16;101287.44;;;14.46;56.84
35224;BME280;21367;51.930;8.112;2023-05-16T09:08:24;101297.84;;;14.48;55.52
35224;BME280;21367;51.930;8.112;2023-05-16T09:13:28;101294.66;;;15.04;54.41
35224;BME280;21367;51.930;8.112;2023-05-16T09:18:32;101290.06;;;15.77;53.84
35224;BME280;21367;51.930;8.112;2023-05-16T09:23:41;101289.28;;;16.73;50.85
35224;BME280;21367;51.930;8.112;2023-05-16T09:28:46;101300.34;;;15.74;50.47
35224;BME280;21367;51.930;8.112;2023-05-16T09:33:51;101283.50;;;16.50;50.54
35224;BME280;21367;51.930;8.112;2023-05-16T09:39:00;101277.38;;;17.13;47.24
35224;BME280;21367;51.930;8.112;2023-05-16T09:44:04;101288.19;;;17.31;47.02
35224;BME280;21367;51.930;8.112;2023-05-16T09:49:10;101275.66;;;17.89;47.53
35224;BME280;21367;51.930;8.112;2023-05-16T09:54:28;101267.84;;;18.30;46.08
35224;BME280;21367;51.930;8.112;2023-05-16T09:59:34;101260.69;;;18.65;46.22
35224;BME280;21367;51.930;8.112;2023-05-16T10:04:38;101276.78;;;17.25;47.58
35224;BME280;21367;51.930;8.112;2023-05-16T10:09:45;101270.25;;;18.66;46.23
35224;BME280;21367;51.930;8.112;2023-05-16T10:14:50;101271.59;;;17.63;45.07
35224;BME280;21367;51.930;8.112;2023-05-16T10:19:54;101273.59;;;17.00;46.54
35224;BME280;21367;51.930;8.112;2023-05-16T10:25:07;101280.75;;;16.76;48.12
35224;BME280;21367;51.930;8.112;2023-05-16T10:30:13;101281.84;;;16.21;49.04
35224;BME280;21367;51.930;8.112;2023-05-16T10:35:16;101275.63;;;14.78;52.12
35224;BME280;21367;51.930;8.112;2023-05-16T10:40:24;101277.38;;;15.86;51.91
35224;BME280;21367;51.930;8.112;2023-05-16T10:45:29;101269.50;;;16.75;49.65
35224;BME280;21367;51.930;8.112;2023-05-16T10:50:35;101269.19;;;16.64;50.46
35224;BME280;21367;51.930;8.112;2023-05-16T10:55:48;101264.38;;;18.31;46.04
35224;BME280;21367;51.930;8.112;2023-05-16T11:01:20;101268.91;;;18.40;45.28
35224;BME280;21367;51.930;8.112;2023-05-16T11:06:26;101270.75;;;18.95;47.47
35224;BME280;21367;51.930;8.112;2023-05-16T11:11:44;101276.28;;;19.70;45.16
35224;BME280;21367;51.930;8.112;2023-05-16T11:16:49;101266.50;;;19.57;43.51
35224;BME280;21367;51.930;8.112;2023-05-16T11:22:07;101260.97;;;20.72;39.58
35224;BME280;21367;51.930;8.112;2023-05-16T11:27:19;101254.97;;;20.83;38.99
35224;BME280;21367;51.930;8.112;2023-05-16T11:32:23;101262.66;;;19.32;40.51
35224;BME280;21367;51.930;8.112;2023-05-16T11:37:27;101259.69;;;21.28;38.24
35224;BME280;21367;51.930;8.112;2023-05-16T11:42:35;101264.97;;;20.43;40.56
35224;BME280;21367;51.930;8.112;2023-05-16T11:47:41;101257.28;;;19.80;38.98
35224;BME280;21367;51.930;8.112;2023-05-16T11:52:46;101259.16;;;18.77;40.24
35224;BME280;21367;51.930;8.112;2023-05-16T11:57:56;101258.66;;;21.08;38.73
35224;BME280;21367;51.930;8.112;2023-05-16T12:03:02;101248.06;;;22.74;37.13
35224;BME280;21367;51.930;8.112;2023-05-16T12:08:09;101246.25;;;23.71;34.93
35224;BME280;21367;51.930;8.112;2023-05-16T12:13:16;101258.56;;;20.95;37.86
35224;BME280;21367;51.930;8.112;2023-05-16T12:18:22;101263.91;;;19.58;40.89
35224;BME280;21367;51.930;8.112;2023-05-16T12:23:26;101264.75;;;18.51;42.55
35224;BME280;21367;51.930;8.112;2023-05-16T12:28:34;101260.94;;;19.31;41.96
35224;BME280;21367;51.930;8.112;2023-05-16T12:33:39;101261.78;;;21.81;38.50
35224;BME280;21367;51.930;8.112;2023-05-16T12:38:45;101250.69;;;23.36;37.67
35224;BME280;21367;51.930;8.112;2023-05-16T12:44:05;101248.94;;;23.33;36.67
35224;BME280;21367;51.930;8.112;2023-05-16T12:49:09;101252.47;;;23.15;36.87
35224;BME280;21367;51.930;8.112;2023-05-16T12:54:13;101249.81;;;22.86;35.29
35224;BME280;21367;51.930;8.112;2023-05-16T12:59:20;101266.06;;;19.84;39.01
35224;BME280;21367;51.930;8.112;2023-05-16T13:04:23;101257.34;;;19.24;40.49
35224;BME280;21367;51.930;8.112;2023-05-16T13:09:27;101266.34;;;17.99;42.66
35224;BME280;21367;51.930;8.112;2023-05-16T13:14:35;101260.22;;;17.97;43.30
35224;BME280;21367;51.930;8.112;2023-05-16T13:19:39;101266.19;;;17.53;44.87
35224;BME280;21367;51.930;8.112;2023-05-16T13:24:43;101276.66;;;17.56;46.16
35224;BME280;21367;51.930;8.112;2023-05-16T13:29:49;101271.25;;;17.85;45.40
35224;BME280;21367;51.930;8.112;2023-05-16T13:34:53;101277.00;;;19.60;41.40
35224;BME280;21367;51.930;8.112;2023-05-16T13:39:57;101285.88;;;19.15;42.52
35224;BME280;21367;51.930;8.112;2023-05-16T13:45:05;101281.19;;;18.48;44.25
35224;BME280;21367;51.930;8.112;2023-05-16T13:50:09;101283.38;;;17.85;44.22
35224;BME280;21367;51.930;8.112;2023-05-16T13:55:15;101296.41;;;17.14;45.27
35224;BME280;21367;51.930;8.112;2023-05-16T14:00:21;101305.00;;;18.68;43.77
35224;BME280;21367;51.930;8.112;2023-05-16T14:05:28;101300.81;;;17.16;45.31
35224;BME280;21367;51.930;8.112;2023-05-16T14:10:32;101304.94;;;16.75;46.41
35224;BME280;21367;51.930;8.112;2023-05-16T14:15:39;101296.06;;;17.72;46.62
35224;BME280;21367;51.930;8.112;2023-05-16T14:20:42;101303.69;;;19.44;43.01
35224;BME280;21367;51.930;8.112;2023-05-16T14:25:47;101308.63;;;20.51;40.03
35224;BME280;21367;51.930;8.112;2023-05-16T14:30:55;101308.47;;;20.39;39.87
35224;BME280;21367;51.930;8.112;2023-05-16T14:36:00;101293.19;;;19.98;41.07
35224;BME280;21367;51.930;8.112;2023-05-16T14:41:05;101295.22;;;21.03;40.38
35224;BME280;21367;51.930;8.112;2023-05-16T14:46:12;101302.75;;;19.99;42.18
35224;BME280;21367;51.930;8.112;2023-05-16T14:51:16;101299.19;;;20.64;40.29
35224;BME280;21367;51.930;8.112;2023-05-16T14:56:21;101306.13;;;20.59;39.95
35224;BME280;21367;51.930;8.112;2023-05-16T15:01:30;101314.50;;;19.67;41.96
35224;BME280;21367;51.930;8.112;2023-05-16T15:06:35;101317.56;;;19.41;43.17
35224;BME280;21367;51.930;8.112;2023-05-16T15:11:42;101317.09;;;20.33;42.24
35224;BME280;21367;51.930;8.112;2023-05-16T15:16:48;101327.69;;;20.46;40.96
35224;BME280;21367;51.930;8.112;2023-05-16T15:21:54;101322.47;;;20.46;42.95
35224;BME280;21367;51.930;8.112;2023-05-16T15:27:00;101321.34;;;21.00;42.10
35224;BME280;21367;51.930;8.112;2023-05-16T15:32:08;101319.66;;;22.62;39.28
35224;BME280;21367;51.930;8.112;2023-05-16T15:37:13;101329.84;;;20.84;40.58
35224;BME280;21367;51.930;8.112;2023-05-16T15:42:17;101329.66;;;19.95;41.77
35224;BME280;21367;51.930;8.112;2023-05-16T15:47:24;101331.25;;;19.28;43.18
35224;BME280;21367;51.930;8.112;2023-05-16T15:52:27;101345.38;;;18.90;43.09
35224;BME280;21367;51.930;8.112;2023-05-16T15:57:32;101352.81;;;17.89;46.13
35224;BME280;21367;51.930;8.112;2023-05-16T16:02:40;101352.47;;;17.39;46.17
35224;BME280;21367;51.930;8.112;2023-05-16T16:07:47;101349.75;;;17.70;45.71
35224;BME280;21367;51.930;8.112;2023-05-16T16:12:58;101367.13;;;17.02;45.96
35224;BME280;21367;51.930;8.112;2023-05-16T16:18:06;101368.31;;;17.15;47.18
35224;BME280;21367;51.930;8.112;2023-05-16T16:23:11;101365.88;;;17.55;46.77
35224;BME280;21367;51.930;8.112;2023-05-16T16:28:15;101365.31;;;16.68;46.11
35224;BME280;21367;51.930;8.112;2023-05-16T16:33:22;101372.84;;;16.58;47.69
35224;BME280;21367;51.930;8.112;2023-05-16T16:38:27;101369.84;;;16.14;47.41
35224;BME280;21367;51.930;8.112;2023-05-16T16:43:31;101369.25;;;15.42;49.23
35224;BME280;21367;51.930;8.112;2023-05-16T16:48:37;101377.19;;;15.21;49.43
35224;BME280;21367;51.930;8.112;2023-05-16T16:53:41;101394.41;;;14.95;51.47
35224;BME280;21367;51.930;8.112;2023-05-16T16:58:45;101406.66;;;15.00;52.26
35224;BME280;21367;51.930;8.112;2023-05-16T17:03:55;101406.00;;;14.35;53.86
35224;BME280;21367;51.930;8.112;2023-05-16T17:08:59;101406.81;;;14.57;54.51
35224;BME280;21367;51.930;8.112;2023-05-16T17:14:09;101415.09;;;14.48;53.80
35224;BME280;21367;51.930;8.112;2023-05-16T17:19:17;101422.56;;;14.41;54.44
35224;BME280;21367;51.930;8.112;2023-05-16T17:24:22;101422.16;;;14.99;54.10
35224;BME280;21367;51.930;8.112;2023-05-16T17:29:26;101435.84;;;14.72;54.71
35224;BME280;21367;51.930;8.112;2023-05-16T17:34:33;101439.03;;;14.65;55.51
35224;BME280;21367;51.930;8.112;2023-05-16T17:39:37;101449.88;;;14.55;55.65
35224;BME280;21367;51.930;8.112;2023-05-16T17:44:41;101443.34;;;13.78;58.29
35224;BME280;21367;51.930;8.112;2023-05-16T17:49:49;101449.22;;;13.95;58.05
35224;BME280;21367;51.930;8.112;2023-05-16T17:54:53;101457.94;;;14.19;58.81
35224;BME280;21367;51.930;8.112;2023-05-16T17:59:57;101461.63;;;14.03;59.21
35224;BME280;21367;51.930;8.112;2023-05-16T18:05:04;101460.66;;;13.79;59.53
35224;BME280;21367;51.930;8.112;2023-05-16T18:10:11;101473.88;;;13.86;60.55
35224;BME280;21367;51.930;8.112;2023-05-16T18:15:16;101473.09;;;13.08;62.27
35224;BME280;21367;51.930;8.112;2023-05-16T18:20:22;101471.25;;;12.86;62.99
35224;BME280;21367;51.930;8.112;2023-05-16T18:25:27;101488.50;;;12.87;63.25
35224;BME280;21367;51.930;8.112;2023-05-16T18:30:31;101492.44;;;12.79;63.26
35224;BME280;21367;51.930;8.112;2023-05-16T18:35:38;101487.47;;;12.84;61.91
35224;BME280;21367;51.930;8.112;2023-05-16T18:40:42;101499.91;;;12.73;62.05
35224;BME280;21367;51.930;8.112;2023-05-16T18:45:47;101496.53;;;12.56;63.14
35224;BME280;21367;51.930;8.112;2023-05-16T18:50:53;101502.44;;;12.54;62.34
35224;BME280;21367;51.930;8.112;2023-05-16T18:55:57;101511.13;;;12.56;63.15
35224;BME280;21367;51.930;8.112;2023-05-16T19:01:01;101506.19;;;12.60;63.41
35224;BME280;21367;51.930;8.112;2023-05-16T19:06:08;101517.22;;;12.22;64.83
35224;BME280;21367;51.930;8.112;2023-05-16T19:11:14;101526.38;;;12.51;64.71
35224;BME280;21367;51.930;8.112;2023-05-16T19:16:18;101533.00;;;12.46;65.26
35224;BME280;21367;51.930;8.112;2023-05-16T19:21:28;101527.31;;;12.71;64.99
35224;BME280;21367;51.930;8.112;2023-05-16T19:26:32;101537.78;;;12.56;65.58
35224;BME280;21367;51.930;8.112;2023-05-16T19:31:36;101547.00;;;12.51;65.39
35224;BME280;21367;51.930;8.112;2023-05-16T19:36:44;101553.25;;;12.56;66.34
35224;BME280;21367;51.930;8.112;2023-05-16T19:41:50;101558.25;;;12.53;66.13
35224;BME280;21367;51.930;8.112;2023-05-16T19:46:54;101554.75;;;12.51;66.84
35224;BME280;21367;51.930;8.112;2023-05-16T19:52:00;101554.72;;;12.33;67.03
35224;BME280;21367;51.930;8.112;2023-05-16T19:57:10;101564.16;;;12.33;67.34
35224;BME280;21367;51.930;8.112;2023-05-16T20:02:13;101561.28;;;12.26;67.05
35224;BME280;21367;51.930;8.112;2023-05-16T20:07:20;101563.31;;;12.16;67.35
35224;BME280;21367;51.930;8.112;2023-05-16T20:12:23;101566.69;;;11.80;68.74
35224;BME280;21367;51.930;8.112;2023-05-16T20:17:30;101565.09;;;12.17;68.36
35224;BME280;21367;51.930;8.112;2023-05-16T20:22:38;101561.94;;;12.04;68.38
35224;BME280;21367;51.930;8.112;2023-05-16T20:27:43;101553.25;;;12.20;68.48
35224;BME280;21367;51.930;8.112;2023-05-16T20:32:47;101557.28;;;12.15;68.62
35224;BME280;21367;51.930;8.112;2023-05-16T20:37:54;101571.06;;;12.34;68.12
35224;BME280;21367;51.930;8.112;2023-05-16T20:42:57;101567.41;;;12.29;68.86
35224;BME280;21367;51.930;8.112;2023-05-16T20:48:01;101572.13;;;12.19;69.25
35224;BME280;21367;51.930;8.112;2023-05-16T20:53:07;101575.69;;;12.05;69.66
35224;BME280;21367;51.930;8.112;2023-05-16T20:58:11;101569.59;;;12.21;70.10
35224;BME280;21367;51.930;8.112;2023-05-16T21:03:15;101574.44;;;12.15;70.32
35224;BME280;21367;51.930;8.112;2023-05-16T21:08:22;101578.69;;;11.96;71.32
35224;BME280;21367;51.930;8.112;2023-05-16T21:13:25;101575.22;;;11.96;70.93
35224;BME280;21367;51.930;8.112;2023-05-16T21:18:29;101583.84;;;11.80;70.66
35224;BME280;21367;51.930;8.112;2023-05-16T21:23:35;101581.09;;;11.77;70.83
35224;BME280;21367;51.930;8.112;2023-05-16T21:28:39;101580.97;;;11.57;71.84
35224;BME280;21367;51.930;8.112;2023-05-16T21:33:43;101577.19;;;11.34;72.66
35224;BME280;21367;51.930;8.112;2023-05-16T21:38:49;101579.34;;;11.27;72.91
35224;BME280;21367;51.930;8.112;2023-05-16T21:43:53;101578.91;;;11.03;74.20
35224;BME280;21367;51.930;8.112;2023-05-16T21:48:57;101582.56;;;11.06;73.95
35224;BME280;21367;51.930;8.112;2023-05-16T21:54:03;101590.66;;;10.98;74.51
35224;BME280;21367;51.930;8.112;2023-05-16T21:59:06;101587.06;;;10.79;74.95
35224;BME280;21367;51.930;8.112;2023-05-16T22:04:10;101584.81;;;10.69;75.71
35224;BME280;21367;51.930;8.112;2023-05-16T22:09:17;101589.59;;;10.63;75.85
35224;BME280;21367;51.930;8.112;2023-05-16T22:14:20;101582.19;;;10.38;77.24
35224;BME280;21367;51.930;8.112;2023-05-16T22:19:24;101576.88;;;10.35;78.27
35224;BME280;21367;51.930;8.112;2023-05-16T22:24:30;101579.28;;;10.32;79.07
35224;BME280;21367;51.930;8.112;2023-05-16T22:29:34;101584.25;;;10.29;78.99
35224;BME280;21367;51.930;8.112;2023-05-16T22:34:40;101585.19;;;10.16;79.48
35224;BME280;21367;51.930;8.112;2023-05-16T22:39:47;101592.25;;;10.20;79.80
35224;BME280;21367;51.930;8.112;2023-05-16T22:44:51;101595.28;;;10.13;80.94
35224;BME280;21367;51.930;8.112;2023-05-16T22:49:55;101599.91;;;10.18;81.15
35224;BME280;21367;51.930;8.112;2023-05-16T22:55:01;101597.41;;;10.20;80.94
35224;BME280;21367;51.930;8.112;2023-05-16T23:00:06;101601.75;;;10.06;81.64
35224;BME280;21367;51.930;8.112;2023-05-16T23:05:10;101607.84;;;10.08;81.38
35224;BME280;21367;51.930;8.112;2023-05-16T23:10:17;101600.59;;;10.01;81.73
35224;BME280;21367;51.930;8.112;2023-05-16T23:15:21;101598.63;;;9.97;81.78
35224;BME280;21367;51.930;8.112;2023-05-16T23:20:25;101605.97;;;9.91;81.75
35224;BME280;21367;51.930;8.112;2023-05-16T23:25:33;101596.59;;;9.91;82.48
35224;BME280;21367;51.930;8.112;2023-05-16T23:30:37;101599.31;;;9.80;83.24
35224;BME280;21367;51.930;8.112;2023-05-16T23:35:40;101603.31;;;9.75;83.56
35224;BME280;21367;51.930;8.112;2023-05-16T23:40:47;101609.50;;;9.78;83.17
35224;BME280;21367;51.930;8.112;2023-05-16T23:45:50;101609.06;;;9.85;82.60
35224;BME280;21367;51.930;8.112;2023-05-16T23:50:54;101610.56;;;9.82;82.65
35224;BME280;21367;51.930;8.112;2023-05-16T23:56:01;101619.53;;;9.60;84.26
